Página principal
METAR-TAF:

METAR-TAF

Aeroportos :

Orsk, Rússia

latitude: 51-04-18N, longitude: 058-35-48E, altura: 277 m

Observação actual do tempo

O boletim foi feito há 21 minutos, às 23:00 UTC
Vento 14 kt de oes-noroeste
Temperatura -5°C
Humidade 86%
Pressão 1037 hPa
Visibilidade 10 km ou mais
sem nuvens abaixo de 1500 metros e sem cumulonimbus

METAR: UWOR 152300Z 29007MPS CAVOK M05/M07 Q1037 R25/CLRD60 NOSIG RMK QFE754/1005

Hora: 04:21 (23:21 UTC)

Previsão

O boletim foi feito há 3 horas e 26 minutos, às 19:55 UTC
Previsão válida de 15 às 21 UTC a 16 às 06 UTC
Vento 14 kt de oeste com rajadas de 23 kt
Visibilidade 10 km ou mais
Nuvens fragmentadasa uma altura de 1100 ft
Temporariamente
de 15 às 21 UTC a 16 às 06 UTC
Vento 17 kt de oes-noroeste com rajadas de 27 kt
Visibilidade: 3100 m
neblina

TAF: UWOR 151955Z 1521/1606 27007G12MPS 9999 BKN011 TXM01/1606Z TNM05/1521Z TEMPO 1521/1606 29009G14MPS 3100 BR

Observações e previsões do tempo de mais de 4000 aeroportos (mensagens METAR e TAF).

As estações disponíveis são os pontos amarelos e vermelhos sobre o mapa.

Mova o rato sobre o mapa para ver o nome da estação.

Depois clique no ponto para visualizar as observações e previsões meteorológicas.

Para alterar o mapa : clique nos botões verdes com uma cruz preta para aumentar o zoom; no botão verde com uma pitada de zoom; ou nas setas verdes para mapas adjacentes.


METAR-TAF: